Station info - map view · info · telemetry · weather · raw · status · beacons · messages · bulletins · browse · moving · my account
Callsign, ship name or locator: Clear       
It is possible to search using wildcards (*?) after a prefix. Example: OH*
APRS station W6JOE-14 - show graphs
Map loading...
Mic-E message: Off duty
Location: 38°03.29' N 120°12.99' W - locator CM98VB43AD - show map - static map
1.4 miles Northeast bearing 40° from Twain Harte, Tuolumne County, California, United States [?]
3.4 miles East bearing 103° from Cedar Ridge, Tuolumne County, California, United States
58.8 miles East bearing 83° from Stockton, San Joaquin County, California, United States
78.2 miles Southeast bearing 117° from Sacramento, Sacramento County, California, United States
Last position: 2018-10-14 18:42:50 EDT (9d 6h1m ago)
2018-10-14 15:42:50 PDT local time at Twain Harte, United States [?]
Altitude: 4226 ft
Course: 119°
Last telemetry: 2015-09-26 00:42:43 EDT (1124d 1m ago) – show telemetry
Ch 1: 423, Ch 2: 634, Ch 3: 0, Ch 4: 0, Ch 5: 0
 1     2     3     4     5     6     7     8 
Device: Kenwood: TM-D710 (rig)
Last path: W6JOE-14>SXPSRY via WIDE1-1,WIDE2-1,qAO,KO6KL-1 (good)
Positions stored: 17922
Other SSIDs: W6JOE W6JOE-10 W6JOE-11 W6JOE-12 W6JOE-13 W6JOE-15
Stations near current position of W6JOE-14 - show more
callsign distance last heard - EDT      callsign distance last heard - EDT
W6JOE-1116.3 yards 270°2018-10-14 18:22:12 W6JOE-1316.3 yards 270°2018-10-19 10:34:24
W6JOE-1220.7 yards 0°2018-10-24 00:19:33 N6GEO B0.7 miles 40°2018-10-24 00:24:31
N6GEO-B0.7 miles 40°2018-10-24 00:24:41 N6GEO0.7 miles 41°2018-10-24 00:06:05
KJ6NRO4.2 miles 187°2018-10-24 00:01:27 EW13909.9 miles 245°2018-10-14 04:55:03
CW316110.2 miles 201°2018-10-24 00:30:37 N6TP-911.9 miles 312°2018-10-11 15:46:58
K6HP-N12.4 miles 108°2018-10-24 00:28:38 WW6E-N12.4 miles 108°2018-10-24 00:40:38
EW820412.7 miles 321°2018-10-24 00:30:18 K6HP B13.3 miles 300°2018-10-24 00:40:54
K6HP-B13.3 miles 300°2018-10-24 00:41:04 FW200013.4 miles 169°2018-10-24 00:31:49
KE6KYI13.5 miles 179°2018-09-28 20:51:56 KE6KYI-913.5 miles 179°2018-10-20 15:11:35
AP89313.5 miles 179°2018-10-24 00:40:03 K6HP-713.7 miles 302°2018-10-21 21:44:18
Stations which heard W6JOE-14 directly on radio –
callsign pkts first heard - EDT last heard longest (tx => rx) longest at - EDT
K6TUO-3 5 2018-10-12 10:38:07 2018-10-14 18:42:52 CM98VB > CM97VU 14.7 miles 179° 2018-10-14 18:42:52
W6BXN-3 23 2018-10-12 22:47:54 2018-10-13 00:46:58 CM97JB > CM97XM 70.4 miles 63° 2018-10-12 22:47:54
K6TJS 21 2018-10-12 22:19:57 2018-10-12 23:32:15 CM96GU > CM97OB 38.3 miles 68° 2018-10-12 22:19:57
WR6ABD 28 2018-10-12 13:05:59 2018-10-12 22:23:24 CM87VS > CM97BC 51.4 miles 155° 2018-10-12 13:29:24
K6IXA-3 9 2018-10-12 22:51:10 2018-10-13 00:21:42 CM97KC > DM06NR 129.2 miles 100° 2018-10-12 22:51:10
K6JE-3 8 2018-10-12 21:48:06 2018-10-12 22:31:37 CM96HW > CM96FS 14.3 miles 207° 2018-10-12 22:31:37
W6CX-3 2 2018-10-12 11:13:49 2018-10-13 00:45:58 CM97RU > CM97BV 75.9 miles 273° 2018-10-13 00:45:58
KE6AFE 1 2018-10-12 21:18:59 2018-10-12 21:18:59 CM96AX > CM86XX 3.5 miles 269° 2018-10-12 21:18:59
K6FGA-1 3 2018-10-12 12:21:14 2018-10-12 12:30:12 CM97ER > CM99MF 110.5 miles 19° 2018-10-12 12:30:12
WA6ODP-3 7 2018-10-12 12:33:14 2018-10-12 12:46:36 CM97DR > CM97AP 13.8 miles 254° 2018-10-12 12:33:14
W6YX-5 10 2018-10-12 13:01:06 2018-10-12 16:22:13 CM87WQ > CM87WJ 20.1 miles 190° 2018-10-12 13:01:06
N6ZX-3 12 2018-10-12 13:01:07 2018-10-13 01:17:21 CM98VB > CM87UK 123.0 miles 250° 2018-10-13 01:17:21
KC6SSM-5 1 2018-10-12 13:28:08 2018-10-12 13:28:08 CM87US > CM87UV 8.0 miles 350° 2018-10-12 13:28:08
K6CDF-8 1 2018-10-13 01:17:20 2018-10-13 01:17:20 CM98VB > CM89SC 142.6 miles 301° 2018-10-13 01:17:20
KE6AFE-2 12 2018-10-12 17:36:21 2018-10-12 21:36:18 CM96CV > CM86XX 14.6 miles 295° 2018-10-12 21:36:18
K7FED-1 23 2018-10-09 12:55:11 2018-10-13 01:15:56 CM98VB > CM97FP 77.7 miles 249° 2018-10-13 01:15:56
KQ6DI-1 1 2018-10-12 12:27:19 2018-10-12 12:27:19 CM97FR > DM07BU 93.9 miles 84° 2018-10-12 12:27:19
K6SJC-1 1 2018-10-12 12:25:12 2018-10-12 12:25:12 CM97FR > CM97JV 19.9 miles 56° 2018-10-12 12:25:12
VACA 1 2018-10-12 10:37:36 2018-10-12 10:37:36 CM98VA > CM88WJ 105.0 miles 285° 2018-10-12 10:37:36
KW0RCA-2 5 2018-10-12 15:34:48 2018-10-12 17:04:11 CM97AD > CM87XO 31.5 miles 358° 2018-10-12 17:04:11
WB6TMS-6 2 2018-10-12 13:06:00 2018-10-12 14:45:43 CM87VR > CM88QB 33.3 miles 315° 2018-10-12 13:06:00
K6BJ-3 28 2018-10-12 17:18:07 2018-10-12 21:45:57 CM96DV > CM96AX 19.6 miles 292° 2018-10-12 21:45:57
N6ACK-11 6 2018-10-12 15:44:13 2018-10-12 16:59:01 CM97AE > CM97AH 11.0 miles 10° 2018-10-12 16:59:01
N6VUD-15 1 2018-10-12 13:23:45 2018-10-12 13:23:45 CM87VS > CM87VV 8.1 miles 358° 2018-10-12 13:23:45
BKELEY 6 2018-10-12 13:23:46 2018-10-12 15:07:43 CM87VS > CM87VU 7.0 miles 358° 2018-10-12 13:23:46
W6IA 3 2018-10-12 16:49:16 2018-10-12 17:00:05 CM97AD > CM97BG 8.6 miles 29° 2018-10-12 17:00:05
W6SRR-3 7 2018-10-12 10:43:01 2018-10-13 01:18:31 CM98VB > CM97AO 98.0 miles 253° 2018-10-13 01:13:49
KK6RUH-10 3 2018-10-12 13:29:24 2018-10-12 14:43:06 CM87VS > CM87VT 1.0 miles 19° 2018-10-12 13:30:08
KO6KL-10 4 2018-10-12 10:38:05 2018-10-13 01:09:35 CM98VA > CM97KR 50.6 miles 246° 2018-10-12 10:38:05
KO6KL-1 7 2018-10-12 11:03:19 2018-10-14 18:42:50 CM98VB > CM97KR 53.3 miles 244° 2018-10-14 18:42:50
K6CQU-5 2 2018-10-12 15:06:38 2018-10-12 15:07:28 CM87US > CM87UU 4.8 miles 336° 2018-10-12 15:07:28
KF6FPU-15 3 2018-10-12 12:05:54 2018-10-12 12:30:48 CM97ER > CM97JT 23.7 miles 75° 2018-10-12 12:30:48
W6PW-10 13 2018-10-12 13:03:14 2018-10-12 15:18:22 CM87WQ > CM87SS 18.1 miles 284° 2018-10-12 13:03:14

Only position packets which were originated by the station are shown here. The range statistics show some extra long hops, because some digipeaters do not correctly add themselves to the digipeater path. Please check the raw packets.
About this site
This page shows real-time information collected from the Automatic Position Reporting System Internet network (APRS-IS). APRS is used by amateur (ham) radio operators to transmit real-time position information, weather data, telemetry and messages over the radio. A vehicle equipped with a GPS receiver, a VHF transmitter or HF transceiver and a small computer device called a tracker transmits it's location, speed and course in a small data packet, which is then received by a nearby iGate receiving site which forwards the packet on the Internet. Systems connected to the Internet can send information on the APRS-IS without a radio transmitter, or collect and display information transmitted anywhere in the world.
FAQ · Blog · Discussion group · Linking to aprs.fi · AIS sites · Service status · Database statistics · Advertising on aprs.fi · Technical details · API · Change log · Planned changes · Credits and thanks · Terms Of Service · iPhone/iPad APRS